Time;durP1;ratioP1;P1;durP2;ratioP2;P2;SDS_P1;SDS_P2;PMS_P1;PMS_P2;Temp;Humidity;BMP_temperature;BMP_pressure;BME280_temperature;BME280_humidity;BME280_pressure;Samples;Min_cycle;Max_cycle;Signal;HPM_P1;HPM_P2
2021/03/24 00:01:46;;;;;;;;;;;;;;;-4.28;100.00;99320.22;1697839;84;20265;-70
2021/03/24 00:04:18;;;;;;;;;;;;;;;-4.35;100.00;99310.06;1697877;84;20309;-70
2021/03/24 00:06:46;;;;;;;;;;;;;;;-4.35;100.00;99315.30;1697863;83;20594;-70
2021/03/24 00:09:15;;;;;;;;;;;;;;;-4.29;100.00;99315.94;1692043;83;22079;-70
2021/03/24 00:11:45;;;;;;;;;;;;;;;-4.31;100.00;99320.05;1691051;83;20313;-71
2021/03/24 00:14:14;;;;;;;;;;;;;;;-4.37;100.00;99327.24;1690678;84;20321;-70
2021/03/24 00:16:42;;;;;;;;;;;;;;;-4.33;100.00;99322.02;1691076;85;20920;-71
2021/03/24 00:19:12;;;;;;;;;;;;;;;-4.30;100.00;99328.73;1690697;84;20237;-70
2021/03/24 00:21:40;;;;;;;;;;;;;;;-4.35;100.00;99329.22;1690770;85;22287;-70
2021/03/24 00:24:11;;;;;;;;;;;;;;;-4.37;100.00;99332.48;1690709;84;20234;-70
2021/03/24 00:26:39;;;;;;;;;;;;;;;-4.42;100.00;99328.23;1690776;84;20608;-70
2021/03/24 00:29:08;;;;;;;;;;;;;;;-4.51;100.00;99326.57;1691012;84;20233;-70
2021/03/24 00:31:37;;;;;;;;;;;;;;;-4.62;100.00;99331.64;1690704;84;20253;-70
2021/03/24 00:34:05;;;;;;;;;;;;;;;-4.69;100.00;99328.53;1691066;84;22296;-70
2021/03/24 00:36:33;;;;;;;;;;;;;;;-4.72;100.00;99332.78;1690850;84;20237;-70
2021/03/24 00:39:02;;;;;;;;;;;;;;;-4.66;100.00;99330.81;1691229;85;20504;-70
2021/03/24 00:41:30;;;;;;;;;;;;;;;-4.72;100.00;99334.91;1690952;84;20276;-71
2021/03/24 00:43:58;;;;;;;;;;;;;;;-4.79;100.00;99329.98;1690427;85;20271;-71
2021/03/24 00:46:26;;;;;;;;;;;;;;;-4.82;100.00;99328.50;1690876;84;21213;-70
2021/03/24 00:48:55;;;;;;;;;;;;;;;-4.82;100.00;99329.00;1690484;84;20237;-70
2021/03/24 00:51:24;;;;;;;;;;;;;;;-4.84;100.00;99326.53;1691090;84;20237;-70
2021/03/24 00:53:52;;;;;;;;;;;;;;;-4.89;100.00;99325.38;1690936;84;20237;-70
2021/03/24 00:56:20;;;;;;;;;;;;;;;-4.88;100.00;99321.77;1691148;85;20237;-71
2021/03/24 00:58:48;;;;;;;;;;;;;;;-4.93;100.00;99323.55;1690947;84;21211;-70
2021/03/24 01:01:16;;;;;;;;;;;;;;;-4.93;100.00;99319.62;1690980;84;20142;-70
2021/03/24 01:03:43;;;;;;;;;;;;;;;-4.96;100.00;99319.45;1690400;84;20233;-70
2021/03/24 01:46:15;;;;;;;;;;;;;;;-4.31;100.00;99376.89;1739060;80;20351;-71
2021/03/24 01:48:48;;;;;;;;;;;;;;;-4.54;100.00;99385.34;1738656;82;21256;-70
2021/03/24 01:51:16;;;;;;;;;;;;;;;-4.67;100.00;99387.62;1735405;82;20265;-70
2021/03/24 01:53:45;;;;;;;;;;;;;;;-4.75;100.00;99392.35;1695168;84;20181;-71
2021/03/24 01:56:13;;;;;;;;;;;;;;;-4.82;100.00;99388.72;1738967;82;20245;-70
2021/03/24 01:58:41;;;;;;;;;;;;;;;-4.88;100.00;99389.84;1738523;82;20296;-71
2021/03/24 02:01:16;;;;;;;;;;;;;;;-4.92;100.00;99393.27;1738757;82;21129;-70
2021/03/24 02:03:45;;;;;;;;;;;;;;;-4.94;100.00;99389.17;1739010;82;20218;-71
2021/03/24 02:06:26;;;;;;;;;;;;;;;-5.01;100.00;99390.28;1738790;82;20233;-70
2021/03/24 02:08:58;;;;;;;;;;;;;;;-5.02;100.00;99398.64;1738040;82;20182;-70
2021/03/24 02:11:33;;;;;;;;;;;;;;;-5.03;100.00;99398.78;1738525;82;20234;-70
2021/03/24 02:14:11;;;;;;;;;;;;;;;-5.06;100.00;99392.06;1738557;82;21209;-69
2021/03/24 02:16:41;;;;;;;;;;;;;;;-5.08;100.00;99396.63;1738658;82;20297;-70
2021/03/24 02:19:15;;;;;;;;;;;;;;;-5.09;100.00;99388.46;1738489;82;20563;-70
2021/03/24 02:21:45;;;;;;;;;;;;;;;-5.07;100.00;99393.52;1739040;82;20173;-70
2021/03/24 02:24:25;;;;;;;;;;;;;;;-5.08;100.00;99389.27;1738869;82;20281;-71
2021/03/24 02:27:10;;;;;;;;;;;;;;;-5.04;100.00;99391.92;1739014;82;21202;-70
2021/03/24 02:29:41;;;;;;;;;;;;;;;-5.09;100.00;99395.00;1738798;82;20232;-70
2021/03/24 02:32:11;;;;;;;;;;;;;;;-5.07;100.00;99400.91;1738707;82;20174;-70
2021/03/24 02:34:41;;;;;;;;;;;;;;;-5.04;100.00;99402.39;1739031;82;20276;-70
2021/03/24 02:37:09;;;;;;;;;;;;;;;-5.00;100.00;99403.69;1738896;82;20254;-70
2021/03/24 02:39:39;;;;;;;;;;;;;;;-5.04;100.00;99407.63;1739353;82;21207;-70
2021/03/24 02:42:09;;;;;;;;;;;;;;;-5.00;100.00;99412.39;1739206;82;20138;-71
2021/03/24 02:44:37;;;;;;;;;;;;;;;-5.09;100.00;99418.55;1739165;82;20501;-71
2021/03/24 02:47:06;;;;;;;;;;;;;;;-5.15;100.00;99418.34;1741424;81;20241;-71
2021/03/24 02:49:35;;;;;;;;;;;;;;;-5.19;100.00;99412.63;1744112;82;20493;-70
2021/03/24 02:52:04;;;;;;;;;;;;;;;-5.22;100.00;99419.45;1743668;82;20615;-71
2021/03/24 02:54:32;;;;;;;;;;;;;;;-5.20;100.00;99417.51;1743890;82;20233;-71
2021/03/24 02:57:00;;;;;;;;;;;;;;;-5.22;100.00;99412.91;1743933;82;20542;-71
2021/03/24 02:59:29;;;;;;;;;;;;;;;-5.26;100.00;99413.72;1743768;81;20535;-70
2021/03/24 03:02:09;;;;;;;;;;;;;;;-5.29;100.00;99422.35;1744008;81;20252;-70
2021/03/24 03:04:55;;;;;;;;;;;;;;;-5.30;100.00;99416.80;1668062;85;21671;-70
2021/03/24 03:07:25;;;;;;;;;;;;;;;-5.32;100.00;99420.05;1672684;85;20273;-71
2021/03/24 03:09:57;;;;;;;;;;;;;;;-5.28;100.00;99411.75;1667551;85;20336;-71
2021/03/24 03:12:41;;;;;;;;;;;;;;;-5.29;100.00;99421.05;1672110;85;20253;-71
2021/03/24 03:15:40;;;;;;;;;;;;;;;-5.26;100.00;99417.65;1811585;77;21159;-70
2021/03/24 03:18:16;;;;;;;;;;;;;;;-5.25;100.00;99419.77;1825000;78;20125;-70
2021/03/24 03:20:51;;;;;;;;;;;;;;;-5.32;100.00;99416.13;1824993;78;21365;-72
2021/03/24 03:23:24;;;;;;;;;;;;;;;-5.37;100.00;99424.94;1825155;78;20140;-70
2021/03/24 03:26:01;;;;;;;;;;;;;;;-5.31;100.00;99422.53;1824485;78;20156;-70
2021/03/24 03:28:29;;;;;;;;;;;;;;;-5.27;100.00;99430.88;1825207;78;20121;-70
2021/03/24 03:30:58;;;;;;;;;;;;;;;-5.32;100.00;99425.29;1825350;78;20133;-70
2021/03/24 03:33:29;;;;;;;;;;;;;;;-5.36;100.00;99431.80;1825201;78;21276;-70
2021/03/24 03:35:57;;;;;;;;;;;;;;;-5.34;100.00;99437.70;1825080;78;20164;-70
2021/03/24 03:38:27;;;;;;;;;;;;;;;-5.33;100.00;99435.43;1825432;78;20108;-70
2021/03/24 03:40:56;;;;;;;;;;;;;;;-5.32;100.00;99431.34;1825264;78;20210;-70
2021/03/24 03:43:24;;;;;;;;;;;;;;;-5.35;100.00;99439.99;1825323;78;20255;-69
2021/03/24 03:45:53;;;;;;;;;;;;;;;-5.39;100.00;99437.69;1809088;78;21381;-71
2021/03/24 03:48:21;;;;;;;;;;;;;;;-5.39;100.00;99439.46;1824873;78;20156;-70
2021/03/24 03:50:56;;;;;;;;;;;;;;;-5.40;100.00;99445.19;1825199;78;20203;-69
2021/03/24 03:53:35;;;;;;;;;;;;;;;-5.36;100.00;99442.26;1824436;78;20499;-70
2021/03/24 03:56:24;;;;;;;;;;;;;;;-5.42;100.00;99443.70;1824988;78;20235;-71
2021/03/24 03:59:12;;;;;;;;;;;;;;;-5.36;100.00;99457.49;1824700;78;21191;-71
2021/03/24 04:01:46;;;;;;;;;;;;;;;-5.21;100.00;99455.95;1825034;78;20204;-71
2021/03/24 04:04:20;;;;;;;;;;;;;;;-5.20;100.00;99458.88;1825378;78;20506;-71
2021/03/24 04:06:51;;;;;;;;;;;;;;;-5.14;100.00;99466.63;1825149;78;20286;-71
2021/03/24 04:09:20;;;;;;;;;;;;;;;-5.20;100.00;99464.61;1825466;78;20835;-71
2021/03/24 04:11:51;;;;;;;;;;;;;;;-5.12;100.00;99478.23;1825404;78;20141;-70
2021/03/24 04:14:23;;;;;;;;;;;;;;;-5.06;100.00;99467.16;1827727;78;21079;-70
2021/03/24 04:16:51;;;;;;;;;;;;;;;-4.96;100.00;99470.47;1831274;78;20157;-71
2021/03/24 04:19:22;;;;;;;;;;;;;;;-4.84;100.00;99467.10;1831096;78;20132;-71
2021/03/24 04:21:53;;;;;;;;;;;;;;;-4.87;100.00;99465.63;1831372;78;20604;-71
2021/03/24 04:24:24;;;;;;;;;;;;;;;-4.97;100.00;99465.73;1815199;78;21709;-71
2021/03/24 04:26:55;;;;;;;;;;;;;;;-4.98;100.00;99470.62;1830506;78;20142;-70
2021/03/24 04:29:46;;;;;;;;;;;;;;;-4.91;100.00;99473.94;1830763;78;20117;-71
2021/03/24 04:32:15;;;;;;;;;;;;;;;-4.92;100.00;99461.80;1621996;88;20264;-71
2021/03/24 04:34:45;;;;;;;;;;;;;;;-4.93;100.00;99465.41;1622066;88;20327;-70
2021/03/24 04:37:36;;;;;;;;;;;;;;;-4.88;100.00;99478.86;1621679;88;21177;-71
2021/03/24 04:40:30;;;;;;;;;;;;;;;-4.79;100.00;99483.16;1622202;88;20251;-70
2021/03/24 04:43:02;;;;;;;;;;;;;;;-4.57;100.00;99479.98;1569092;91;20336;-70
2021/03/24 04:45:55;;;;;;;;;;;;;;;-4.51;100.00;99486.38;1568834;91;20244;-70
2021/03/24 04:48:26;;;;;;;;;;;;;;;-4.42;100.00;99494.60;1568902;91;20538;-70
2021/03/24 04:51:10;;;;;;;;;;;;;;;-4.14;100.00;99494.34;1854324;77;20185;-69
2021/03/24 04:53:41;;;;;;;;;;;;;;;-4.01;100.00;99505.21;1822042;78;20141;-70
2021/03/24 04:56:13;;;;;;;;;;;;;;;-3.83;100.00;99517.36;1821890;78;21367;-69
2021/03/24 04:58:44;;;;;;;;;;;;;;;-3.80;100.00;99502.11;1822058;78;20168;-70
2021/03/24 05:01:30;;;;;;;;;;;;;;;-3.61;100.00;99510.17;1822009;78;20136;-69
2021/03/24 05:04:08;;;;;;;;;;;;;;;-3.58;100.00;99516.89;1821866;78;20160;-69
2021/03/24 05:06:42;;;;;;;;;;;;;;;-3.40;100.00;99512.31;1822113;78;20157;-70
2021/03/24 05:09:11;;;;;;;;;;;;;;;-3.34;100.00;99511.64;1820899;78;21567;-70
2021/03/24 05:11:46;;;;;;;;;;;;;;;-3.32;100.00;99521.48;1822233;78;20140;-70
2021/03/24 05:14:26;;;;;;;;;;;;;;;-3.20;100.00;99519.86;1821971;78;20570;-70
2021/03/24 05:17:16;;;;;;;;;;;;;;;-3.14;100.00;99519.17;1821922;78;20327;-70
2021/03/24 05:19:45;;;;;;;;;;;;;;;-3.05;100.00;99528.19;1821722;78;20270;-70
2021/03/24 05:22:30;;;;;;;;;;;;;;;-3.03;100.00;99518.84;1821895;78;21256;-70
2021/03/24 05:25:07;;;;;;;;;;;;;;;-2.93;100.00;99531.30;1821241;78;20248;-71
2021/03/24 05:27:41;;;;;;;;;;;;;;;-2.81;100.00;99535.21;1821641;78;20534;-70
2021/03/24 05:30:13;;;;;;;;;;;;;;;-2.75;100.00;99544.72;1822168;78;20495;-70
2021/03/24 05:32:42;;;;;;;;;;;;;;;-2.82;100.00;99536.21;1821197;78;20220;-69
2021/03/24 05:35:29;;;;;;;;;;;;;;;-2.71;100.00;99551.29;1822126;78;21365;-70
2021/03/24 05:38:05;;;;;;;;;;;;;;;-2.64;100.00;99556.20;1821556;78;20716;-69
2021/03/24 05:40:56;;;;;;;;;;;;;;;-2.64;99.32;99552.27;1821838;78;20538;-69
2021/03/24 05:43:45;;;;;;;;;;;;;;;-2.68;98.37;99550.95;1821957;78;20281;-70
2021/03/24 05:46:22;;;;;;;;;;;;;;;-2.46;99.33;99556.79;1821530;78;20232;-70
2021/03/24 05:49:19;;;;;;;;;;;;;;;-2.27;98.46;99556.89;1822073;78;21135;-71
2021/03/24 05:52:02;;;;;;;;;;;;;;;-2.25;98.90;99554.11;1821546;78;20152;-70
2021/03/24 05:54:48;;;;;;;;;;;;;;;-2.35;96.82;99564.83;1821951;78;20137;-70
2021/03/24 05:57:43;;;;;;;;;;;;;;;-2.24;97.44;99559.17;1821867;78;20353;-71
2021/03/24 06:00:36;;;;;;;;;;;;;;;-2.29;96.50;99550.17;1821777;78;20235;-71
2021/03/24 06:03:09;;;;;;;;;;;;;;;-2.10;96.54;99563.41;1820853;78;23050;-71
2021/03/24 06:06:17;;;;;;;;;;;;;;;-2.01;94.28;99565.83;1821064;78;20485;-70
2021/03/24 06:08:55;;;;;;;;;;;;;;;-1.95;95.14;99569.58;1821028;78;20433;-69
2021/03/24 06:11:51;;;;;;;;;;;;;;;-1.79;93.48;99564.70;1820919;78;20227;-69
2021/03/24 06:14:40;;;;;;;;;;;;;;;-1.86;93.36;99566.39;1820958;78;20502;-68
2021/03/24 06:17:19;;;;;;;;;;;;;;;-1.80;90.86;99565.20;1771470;80;20896;-70
2021/03/24 06:19:57;;;;;;;;;;;;;;;-1.79;92.08;99573.91;1771749;81;20163;-69
2021/03/24 06:22:46;;;;;;;;;;;;;;;-1.63;91.50;99580.91;1771951;81;20202;-69
2021/03/24 06:25:32;;;;;;;;;;;;;;;-1.60;90.29;99574.78;1771524;81;20390;-70
2021/03/24 06:28:31;;;;;;;;;;;;;;;-1.32;88.69;99575.10;1852646;77;20764;-68
2021/03/24 06:31:35;;;;;;;;;;;;;;;-1.17;87.60;99575.66;1821957;78;20156;-69
2021/03/24 06:34:10;;;;;;;;;;;;;;;-1.22;87.40;99586.72;1821656;78;21199;-70
2021/03/24 06:36:48;;;;;;;;;;;;;;;-1.05;85.11;99595.78;1821434;78;20339;-68
2021/03/24 06:39:25;;;;;;;;;;;;;;;-1.18;84.75;99591.12;1821852;78;20212;-69
2021/03/24 06:42:09;;;;;;;;;;;;;;;-1.07;85.35;99594.66;1821419;78;20168;-69
2021/03/24 06:44:54;;;;;;;;;;;;;;;-0.91;83.87;99593.22;1821183;78;20109;-69
2021/03/24 06:47:37;;;;;;;;;;;;;;;-0.92;81.90;99591.56;1720894;83;21385;-69
2021/03/24 06:50:31;;;;;;;;;;;;;;;-0.79;83.31;99601.48;1722470;82;20721;-69
2021/03/24 06:53:23;;;;;;;;;;;;;;;-0.72;82.01;99602.41;1733619;82;20248;-70
2021/03/24 06:56:32;;;;;;;;;;;;;;;-0.60;81.62;99602.80;1713426;82;20291;-70
2021/03/24 06:59:37;;;;;;;;;;;;;;;-0.55;78.86;99595.16;1704326;83;20299;-69
2021/03/24 07:02:33;;;;;;;;;;;;;;;-0.48;78.61;99609.27;1703601;83;20251;-69
2021/03/24 07:05:24;;;;;;;;;;;;;;;-0.44;78.90;99615.02;1704186;84;20287;-69
2021/03/24 07:08:10;;;;;;;;;;;;;;;-0.32;78.36;99614.05;1704589;84;20267;-69
2021/03/24 07:10:42;;;;;;;;;;;;;;;-0.10;76.39;99607.88;1704579;84;20267;-70
2021/03/24 07:13:31;;;;;;;;;;;;;;;-0.29;76.18;99611.87;1704275;84;20503;-69
2021/03/24 07:16:09;;;;;;;;;;;;;;;-0.25;74.86;99601.26;1703711;84;21155;-69
2021/03/24 07:18:58;;;;;;;;;;;;;;;-0.23;75.74;99610.32;1703706;84;20671;-69
2021/03/24 07:21:45;;;;;;;;;;;;;;;-0.10;75.27;99614.47;1716413;83;20569;-68
2021/03/24 07:24:19;;;;;;;;;;;;;;;0.12;72.41;99615.36;1772544;78;20279;-69
2021/03/24 07:27:15;;;;;;;;;;;;;;;-0.06;71.97;99613.59;1783562;80;20262;-68
2021/03/24 07:29:53;;;;;;;;;;;;;;;0.37;73.16;99608.44;1722643;83;20395;-69
2021/03/24 07:32:36;;;;;;;;;;;;;;;0.53;68.65;99630.64;1714792;83;20276;-69
2021/03/24 07:35:34;;;;;;;;;;;;;;;0.62;68.43;99622.11;1714851;83;20294;-70
2021/03/24 07:38:24;;;;;;;;;;;;;;;0.65;68.96;99625.69;1714812;83;20311;-69
2021/03/24 07:41:04;;;;;;;;;;;;;;;1.23;64.73;99633.56;1713559;83;20279;-68
2021/03/24 07:43:55;;;;;;;;;;;;;;;1.18;63.78;99626.70;1714263;83;20598;-69
2021/03/24 07:47:02;;;;;;;;;;;;;;;1.23;64.10;99620.34;1714387;83;20259;-68
2021/03/24 07:49:51;;;;;;;;;;;;;;;1.75;62.72;99621.71;1714273;83;20215;-69
2021/03/24 07:52:42;;;;;;;;;;;;;;;1.72;59.28;99622.11;1715732;83;20565;-67
2021/03/24 07:55:24;;;;;;;;;;;;;;;1.70;60.00;99622.80;1714599;83;20239;-68
2021/03/24 07:58:00;;;;;;;;;;;;;;;1.73;60.22;99629.02;1714323;83;21191;-70
2021/03/24 08:00:37;;;;;;;;;;;;;;;1.64;59.21;99628.86;1714390;83;20331;-69
2021/03/24 08:03:38;;;;;;;;;;;;;;;1.82;60.45;99631.83;1685626;83;20324;-69
2021/03/24 08:06:30;;;;;;;;;;;;;;;1.79;60.39;99635.36;1715052;81;20260;-68
2021/03/24 08:09:20;;;;;;;;;;;;;;;1.74;58.90;99631.16;1757549;81;20290;-69
2021/03/24 08:11:58;;;;;;;;;;;;;;;1.77;57.59;99634.25;1768258;81;21205;-69
2021/03/24 08:14:50;;;;;;;;;;;;;;;1.22;58.64;99626.11;1768255;80;20198;-69
2021/03/24 08:17:42;;;;;;;;;;;;;;;1.33;59.23;99636.69;1732942;82;20250;-68
2021/03/24 08:20:21;;;;;;;;;;;;;;;1.75;60.53;99639.42;1721795;83;20242;-67
2021/03/24 08:23:15;;;;;;;;;;;;;;;1.38;57.25;99632.96;1726461;83;20303;-69
2021/03/24 08:26:13;;;;;;;;;;;;;;;1.80;60.07;99646.27;1701839;84;21005;-69
2021/03/24 08:28:47;;;;;;;;;;;;;;;1.62;56.64;99646.78;1720390;83;20310;-70
2021/03/24 08:31:44;;;;;;;;;;;;;;;1.79;55.01;99632.23;1851378;77;20429;-68
2021/03/24 08:34:42;;;;;;;;;;;;;;;1.79;55.88;99649.91;1820738;78;20203;-68
2021/03/24 08:37:29;;;;;;;;;;;;;;;2.09;55.06;99646.54;1698337;84;20752;-68
2021/03/24 08:40:10;;;;;;;;;;;;;;;2.25;53.25;99642.73;1698447;83;20248;-68
2021/03/24 08:42:54;;;;;;;;;;;;;;;2.11;53.10;99641.88;1698093;84;20196;-69
2021/03/24 08:45:28;;;;;;;;;;;;;;;1.89;54.03;99623.94;1698103;83;20413;-70
2021/03/24 08:48:00;;;;;;;;;;;;;;;2.06;53.82;99629.73;1697647;83;20311;-69
2021/03/24 08:50:31;;;;;;;;;;;;;;;1.98;53.80;99618.77;1697219;83;21386;-70
2021/03/24 08:56:39;;;;;;;;;;;;;;;2.69;54.21;99636.16;1697018;84;20404;-68
2021/03/24 08:59:16;;;;;;;;;;;;;;;2.50;52.15;99621.83;1696653;84;20304;-67
2021/03/24 09:01:51;;;;;;;;;;;;;;;2.58;53.87;99625.64;1697265;84;20838;-70
2021/03/24 09:04:57;;;;;;;;;;;;;;;2.87;52.42;99619.70;1697051;83;20344;-70
2021/03/24 09:07:58;;;;;;;;;;;;;;;3.20;52.41;99639.08;1885553;76;20267;-69
2021/03/24 09:10:43;;;;;;;;;;;;;;;3.49;51.37;99645.01;1853790;77;20201;-69
2021/03/24 09:13:22;;;;;;;;;;;;;;;3.33;51.17;99648.06;1853818;76;20197;-69
2021/03/24 09:16:16;;;;;;;;;;;;;;;3.36;51.88;99647.16;1850444;77;20158;-71
2021/03/24 09:19:06;;;;;;;;;;;;;;;3.60;51.65;99658.16;1815660;77;20151;-70
2021/03/24 09:22:08;;;;;;;;;;;;;;;3.47;51.48;99648.89;1853302;77;20190;-68
2021/03/24 09:24:42;;;;;;;;;;;;;;;3.71;51.66;99654.89;1666035;84;20335;-69
2021/03/24 09:27:23;;;;;;;;;;;;;;;3.52;51.04;99656.53;1666112;85;21405;-70
2021/03/24 09:29:58;;;;;;;;;;;;;;;3.39;52.37;99657.36;1664967;86;20935;-69
2021/03/24 09:32:35;;;;;;;;;;;;;;;4.11;50.58;99656.13;1851768;77;20319;-69
2021/03/24 09:35:25;;;;;;;;;;;;;;;4.09;50.91;99654.19;1820674;78;20128;-70
2021/03/24 09:38:17;;;;;;;;;;;;;;;4.38;50.10;99648.06;1757029;81;21051;-72
2021/03/24 09:40:50;;;;;;;;;;;;;;;4.25;48.56;99640.45;1756398;81;20617;-68
2021/03/24 09:43:27;;;;;;;;;;;;;;;4.20;51.43;99655.40;1756654;81;20205;-68
2021/03/24 09:45:59;;;;;;;;;;;;;;;3.93;51.51;99648.02;1756691;81;20673;-66
2021/03/24 09:48:54;;;;;;;;;;;;;;;3.95;50.07;99652.09;1885627;76;20260;-69
2021/03/24 09:51:26;;;;;;;;;;;;;;;3.53;50.80;99650.22;1853692;77;20213;-70
2021/03/24 09:53:58;;;;;;;;;;;;;;;3.61;50.99;99628.77;1851126;77;20521;-69
2021/03/24 09:56:26;;;;;;;;;;;;;;;3.67;49.83;99646.22;1851647;77;20217;-69
2021/03/24 09:59:30;;;;;;;;;;;;;;;3.67;52.06;99655.51;1854068;77;20281;-69
2021/03/24 10:02:15;;;;;;;;;;;;;;;3.62;51.18;99648.97;1853794;77;20185;-69
2021/03/24 10:04:52;;;;;;;;;;;;;;;3.91;51.96;99655.38;1853384;77;20198;-69
2021/03/24 10:07:25;;;;;;;;;;;;;;;4.69;49.43;99651.30;1853502;76;22292;-68
2021/03/24 10:10:04;;;;;;;;;;;;;;;5.02;47.47;99640.48;1852989;76;20118;-68
2021/03/24 10:12:57;;;;;;;;;;;;;;;4.44;48.26;99632.63;1853709;77;20645;-69
2021/03/24 10:15:38;;;;;;;;;;;;;;;4.64;47.95;99646.62;1853660;77;20702;-67
2021/03/24 10:18:27;;;;;;;;;;;;;;;4.38;48.95;99652.86;1853217;77;20276;-68
2021/03/24 10:21:05;;;;;;;;;;;;;;;4.87;49.81;99655.38;1853758;77;21190;-69
2021/03/24 10:23:37;;;;;;;;;;;;;;;5.17;46.72;99649.48;1853616;77;20631;-68
2021/03/24 10:26:16;;;;;;;;;;;;;;;4.38;47.31;99642.75;1853787;77;20312;-68
2021/03/24 10:28:57;;;;;;;;;;;;;;;4.44;49.77;99654.69;1853444;77;20626;-68
2021/03/24 10:31:45;;;;;;;;;;;;;;;4.29;49.42;99662.93;1853641;77;20270;-68
2021/03/24 10:34:35;;;;;;;;;;;;;;;4.37;49.70;99658.41;1853568;77;21180;-70
2021/03/24 10:37:13;;;;;;;;;;;;;;;4.18;49.19;99658.25;1791740;80;20592;-68
2021/03/24 10:39:47;;;;;;;;;;;;;;;4.59;48.16;99645.11;1791989;80;20246;-69
2021/03/24 10:42:24;;;;;;;;;;;;;;;4.44;49.75;99636.61;1792086;80;20305;-70
2021/03/24 10:45:14;;;;;;;;;;;;;;;4.71;50.06;99655.90;1789002;80;20217;-68
2021/03/24 10:47:50;;;;;;;;;;;;;;;4.37;47.78;99643.27;1672574;85;20354;-69
2021/03/24 10:50:28;;;;;;;;;;;;;;;4.18;49.72;99638.84;1833544;77;20174;-68
2021/03/24 10:53:13;;;;;;;;;;;;;;;4.77;49.04;99638.27;1788490;80;20567;-68
2021/03/24 10:55:43;;;;;;;;;;;;;;;4.85;48.36;99632.69;1800159;78;22224;-69
2021/03/24 10:58:33;;;;;;;;;;;;;;;5.47;45.75;99630.20;1820977;78;20152;-68
2021/03/24 11:01:14;;;;;;;;;;;;;;;5.42;47.19;99640.69;1820612;78;20235;-68
2021/03/24 11:03:54;;;;;;;;;;;;;;;5.23;47.08;99643.80;1820630;78;20215;-67
2021/03/24 11:06:37;;;;;;;;;;;;;;;4.88;48.08;99641.59;1820990;78;20180;-69
2021/03/24 11:09:08;;;;;;;;;;;;;;;5.32;46.65;99643.84;1783809;78;21211;-69
2021/03/24 11:11:48;;;;;;;;;;;;;;;5.48;46.91;99635.28;1782133;80;20199;-70
2021/03/24 11:14:23;;;;;;;;;;;;;;;5.21;48.26;99637.34;1786158;78;20187;-69
2021/03/24 11:17:13;;;;;;;;;;;;;;;5.58;46.80;99629.46;1807330;78;20348;-69
2021/03/24 11:19:43;;;;;;;;;;;;;;;5.48;48.61;99635.80;1784426;80;20289;-68
2021/03/24 11:22:17;;;;;;;;;;;;;;;5.14;46.33;99633.92;1798225;78;21150;-69
2021/03/24 11:36:38;;;;;;;;;;;;;;;5.56;44.57;99628.86;1819969;78;20590;-68
2021/03/24 11:39:20;;;;;;;;;;;;;;;5.24;46.38;99627.63;1820534;78;20518;-68
2021/03/24 11:41:50;;;;;;;;;;;;;;;5.67;46.36;99633.48;1820866;78;20149;-68
2021/03/24 11:44:22;;;;;;;;;;;;;;;5.90;45.85;99632.83;1820608;78;20188;-67
2021/03/24 11:46:58;;;;;;;;;;;;;;;4.59;47.74;99623.84;1820939;78;20208;-68
2021/03/24 11:49:36;;;;;;;;;;;;;;;4.21;49.29;99624.61;1822942;78;20617;-68
2021/03/24 11:52:12;;;;;;;;;;;;;;;4.50;48.41;99617.95;1826535;78;21343;-69
2021/03/24 11:54:51;;;;;;;;;;;;;;;5.00;47.59;99615.93;1826587;78;20299;-69
2021/03/24 11:57:41;;;;;;;;;;;;;;;5.84;44.63;99620.41;1826136;77;20502;-68
2021/03/24 12:00:16;;;;;;;;;;;;;;;6.04;45.80;99627.41;1826270;78;20231;-67
2021/03/24 12:03:18;;;;;;;;;;;;;;;5.78;45.28;99628.77;1826170;78;20283;-70
2021/03/24 12:06:02;;;;;;;;;;;;;;;5.97;43.57;99630.14;1822079;78;22923;-69
2021/03/24 12:08:38;;;;;;;;;;;;;;;5.64;45.77;99623.27;1825678;78;20291;-68
2021/03/24 12:11:31;;;;;;;;;;;;;;;5.07;44.84;99619.36;1825716;78;20307;-68
2021/03/24 12:14:14;;;;;;;;;;;;;;;5.67;44.98;99622.02;1826021;78;20153;-69
2021/03/24 12:16:52;;;;;;;;;;;;;;;6.29;43.87;99622.79;1826209;78;20515;-68
2021/03/24 12:19:41;;;;;;;;;;;;;;;6.49;44.06;99633.73;1825829;78;22366;-69
2021/03/24 12:22:20;;;;;;;;;;;;;;;6.42;42.64;99622.64;1800336;78;20220;-69
2021/03/24 12:24:52;;;;;;;;;;;;;;;6.13;42.88;99616.75;1786798;80;20199;-69
2021/03/24 12:27:28;;;;;;;;;;;;;;;6.25;43.55;99620.79;1786058;80;20273;-69
2021/03/24 12:30:02;;;;;;;;;;;;;;;6.57;41.92;99625.44;1797760;79;20563;-68
2021/03/24 12:32:37;;;;;;;;;;;;;;;6.32;43.61;99621.53;1807023;79;20639;-69
2021/03/24 12:35:08;;;;;;;;;;;;;;;5.48;43.97;99618.50;1806720;79;21054;-70
2021/03/24 12:37:49;;;;;;;;;;;;;;;6.17;43.04;99623.25;1806629;79;20148;-68
2021/03/24 12:40:23;;;;;;;;;;;;;;;6.68;43.12;99623.31;1807446;79;20292;-70
2021/03/24 12:42:54;;;;;;;;;;;;;;;7.09;42.31;99626.52;1807295;79;20244;-71
2021/03/24 12:45:33;;;;;;;;;;;;;;;6.82;41.70;99619.43;1806342;79;22343;-70
2021/03/24 12:48:06;;;;;;;;;;;;;;;6.23;43.21;99623.17;1790653;79;20238;-70
2021/03/24 12:50:38;;;;;;;;;;;;;;;6.40;41.33;99623.38;1786828;80;20242;-70
2021/03/24 12:53:26;;;;;;;;;;;;;;;6.55;42.10;99620.31;1787001;80;20206;-70
2021/03/24 12:56:08;;;;;;;;;;;;;;;6.29;41.40;99627.31;1731110;82;20308;-70
2021/03/24 12:58:49;;;;;;;;;;;;;;;6.61;41.10;99629.26;1733721;82;21272;-70
2021/03/24 13:01:44;;;;;;;;;;;;;;;7.00;40.85;99621.73;1738337;80;20759;-69
2021/03/24 13:04:38;;;;;;;;;;;;;;;6.64;42.40;99618.16;1733600;81;20308;-68
2021/03/24 13:07:29;;;;;;;;;;;;;;;6.14;41.10;99623.17;1733873;81;20271;-68
2021/03/24 13:10:30;;;;;;;;;;;;;;;5.17;45.65;99614.88;1732903;81;20256;-68
2021/03/24 13:13:12;;;;;;;;;;;;;;;5.48;43.51;99615.31;1667009;85;21465;-69
2021/03/24 13:15:48;;;;;;;;;;;;;;;6.59;41.93;99606.83;1666538;86;20281;-68
2021/03/24 13:18:43;;;;;;;;;;;;;;;7.25;40.66;99620.20;1666918;84;20190;-68
2021/03/24 13:21:34;;;;;;;;;;;;;;;7.15;40.25;99627.97;1667172;86;20332;-68
2021/03/24 13:24:28;;;;;;;;;;;;;;;7.45;39.35;99622.05;1666890;84;20309;-68
2021/03/24 13:27:10;;;;;;;;;;;;;;;7.44;39.47;99621.73;1666562;84;20324;-68
2021/03/24 13:30:20;;;;;;;;;;;;;;;6.91;40.27;99621.77;1666521;84;20277;-68
2021/03/24 13:32:52;;;;;;;;;;;;;;;7.36;41.03;99615.95;1666465;84;20422;-68
2021/03/24 13:35:41;;;;;;;;;;;;;;;7.47;39.12;99615.13;1666181;84;20245;-68
2021/03/24 13:38:37;;;;;;;;;;;;;;;7.46;40.00;99615.65;1666788;85;20316;-68
2021/03/24 13:41:07;;;;;;;;;;;;;;;7.35;39.76;99609.80;1662019;84;21224;-68
2021/03/24 13:43:48;;;;;;;;;;;;;;;6.42;39.68;99602.64;1666623;86;20329;-68
2021/03/24 13:46:35;;;;;;;;;;;;;;;6.90;40.11;99606.28;1885538;76;20304;-67
2021/03/24 13:49:16;;;;;;;;;;;;;;;6.66;40.55;99592.05;1853913;76;20205;-70
2021/03/24 13:51:48;;;;;;;;;;;;;;;7.12;39.97;99606.56;1853258;77;21310;-68
2021/03/24 13:54:36;;;;;;;;;;;;;;;7.37;40.23;99606.34;1853943;77;20688;-70
2021/03/24 13:57:19;;;;;;;;;;;;;;;7.63;39.73;99605.08;1853057;77;21068;-68
2021/03/24 14:00:15;;;;;;;;;;;;;;;7.98;38.84;99616.78;1853907;77;20181;-70
2021/03/24 14:03:07;;;;;;;;;;;;;;;8.12;38.82;99615.48;1805935;78;20243;-69
2021/03/24 14:05:57;;;;;;;;;;;;;;;7.82;36.95;99615.13;1806283;79;21336;-68
2021/03/24 14:08:34;;;;;;;;;;;;;;;6.60;40.07;99604.98;1806739;79;20137;-68
2021/03/24 14:11:06;;;;;;;;;;;;;;;6.17;40.77;99604.09;1805588;79;20543;-68
2021/03/24 14:14:00;;;;;;;;;;;;;;;5.73;41.61;99587.34;1806560;78;20157;-68
2021/03/24 14:16:43;;;;;;;;;;;;;;;5.55;42.15;99594.77;1806398;78;20217;-70
2021/03/24 14:19:21;;;;;;;;;;;;;;;5.54;42.59;99601.14;1805940;79;21473;-68
2021/03/24 14:22:04;;;;;;;;;;;;;;;5.74;42.11;99588.15;1806010;78;20233;-69
2021/03/24 14:24:59;;;;;;;;;;;;;;;5.93;42.61;99591.64;1806440;79;20200;-69
2021/03/24 14:27:56;;;;;;;;;;;;;;;5.95;42.59;99597.56;1806219;78;20225;-70
2021/03/24 14:30:31;;;;;;;;;;;;;;;6.34;41.02;99594.12;1806639;79;20240;-68
2021/03/24 14:33:33;;;;;;;;;;;;;;;6.55;41.09;99589.65;1791807;79;21385;-69
2021/03/24 14:36:38;;;;;;;;;;;;;;;6.46;41.56;99596.33;1751066;81;20249;-69
2021/03/24 14:39:27;;;;;;;;;;;;;;;6.55;41.60;99591.51;1834757;77;20209;-69
2021/03/24 14:42:02;;;;;;;;;;;;;;;6.70;39.81;99583.09;1805458;78;20357;-71
2021/03/24 14:44:56;;;;;;;;;;;;;;;6.00;42.16;99584.39;1797700;78;21337;-68
2021/03/24 14:47:51;;;;;;;;;;;;;;;6.16;43.05;99586.45;1794328;78;20351;-68
2021/03/24 14:50:41;;;;;;;;;;;;;;;6.15;42.00;99594.67;1790289;78;20154;-69